Time;durP1;ratioP1;P1;durP2;ratioP2;P2;SDS_P1;SDS_P2;PMS_P1;PMS_P2;Temp;Humidity;BMP_temperature;BMP_pressure;BME280_temperature;BME280_humidity;BME280_pressure;Samples;Min_cycle;Max_cycle;Signal;HPM_P1;HPM_P2
2021/08/26 00:00:24;;;;;;;17.77;4.22;;;15.70;99.90;;;;;;5093265;28;20039;-74
2021/08/26 00:05:43;;;;;;;25.90;5.57;;;15.70;99.90;;;;;;5094729;28;20107;-74
2021/08/26 00:08:09;;;;;;;15.77;3.67;;;15.70;99.90;;;;;;5093242;28;20052;-74
2021/08/26 00:10:36;;;;;;;16.08;4.10;;;15.80;99.90;;;;;;5094157;28;20047;-74
2021/08/26 00:13:06;;;;;;;18.60;4.53;;;15.80;99.90;;;;;;5093194;28;20051;-74
2021/08/26 00:15:35;;;;;;;21.50;4.05;;;15.80;99.90;;;;;;5094351;28;20040;-75
2021/08/26 00:18:01;;;;;;;16.42;3.95;;;15.90;99.90;;;;;;5094492;28;20043;-74
2021/08/26 00:20:27;;;;;;;14.07;4.20;;;15.80;99.90;;;;;;5093944;28;20079;-74
2021/08/26 00:22:53;;;;;;;18.38;4.40;;;15.80;99.90;;;;;;5094155;28;20078;-74
2021/08/26 00:25:18;;;;;;;18.17;4.43;;;15.90;99.90;;;;;;5093082;28;20044;-75
2021/08/26 00:27:44;;;;;;;17.52;4.28;;;15.90;99.90;;;;;;5093180;28;20036;-74
2021/08/26 00:30:10;;;;;;;20.15;4.03;;;15.80;99.90;;;;;;5093963;28;20032;-75
2021/08/26 00:32:36;;;;;;;18.52;2.97;;;15.90;99.90;;;;;;5094047;28;20043;-74
2021/08/26 00:35:01;;;;;;;13.93;2.83;;;15.80;99.90;;;;;;5094113;28;20048;-74
2021/08/26 00:37:27;;;;;;;9.98;2.60;;;15.80;99.90;;;;;;5092781;28;20480;-74
2021/08/26 00:39:52;;;;;;;15.52;3.10;;;15.70;99.90;;;;;;5093660;28;20039;-74
2021/08/26 00:42:18;;;;;;;11.38;2.78;;;15.70;99.90;;;;;;5094469;28;20541;-74
2021/08/26 00:44:43;;;;;;;11.10;2.10;;;15.70;99.90;;;;;;5075951;28;20036;-74
2021/08/26 00:47:09;;;;;;;14.00;3.10;;;15.70;99.90;;;;;;5092819;28;20389;-75
2021/08/26 00:49:35;;;;;;;8.65;3.25;;;15.60;99.90;;;;;;5093868;28;20044;-75
2021/08/26 00:52:01;;;;;;;9.70;2.67;;;15.60;99.90;;;;;;5092484;28;20040;-74
2021/08/26 00:54:27;;;;;;;14.73;3.10;;;15.60;99.90;;;;;;5094212;28;20044;-74
2021/08/26 00:56:55;;;;;;;12.10;2.28;;;15.70;99.90;;;;;;5092376;28;20040;-74
2021/08/26 00:59:20;;;;;;;13.05;2.78;;;15.70;99.90;;;;;;5093636;28;20408;-74
2021/08/26 01:01:55;;;;;;;15.00;2.88;;;15.70;99.90;;;;;;5093343;28;20035;-74
2021/08/26 01:04:31;;;;;;;14.38;2.80;;;15.70;99.90;;;;;;5093248;28;20036;-74
2021/08/26 01:07:01;;;;;;;18.48;2.88;;;15.70;99.90;;;;;;5092590;28;20050;-75
2021/08/26 01:09:38;;;;;;;10.32;2.53;;;15.70;99.90;;;;;;5093298;28;20047;-75
2021/08/26 01:12:04;;;;;;;10.15;2.70;;;15.60;99.90;;;;;;5093489;28;20097;-74
2021/08/26 01:14:30;;;;;;;8.73;2.15;;;15.50;99.90;;;;;;5093902;28;20029;-75
2021/08/26 01:16:55;;;;;;;13.70;3.47;;;15.60;99.90;;;;;;5093725;28;20032;-75
2021/08/26 01:19:21;;;;;;;8.93;2.20;;;15.50;99.90;;;;;;5093311;28;20039;-74
2021/08/26 01:21:46;;;;;;;6.97;2.08;;;15.50;99.90;;;;;;5093607;28;20079;-74
2021/08/26 01:24:16;;;;;;;10.90;2.20;;;15.50;99.90;;;;;;5093775;28;20040;-75
2021/08/26 01:26:45;;;;;;;6.68;1.98;;;15.50;99.90;;;;;;5092358;28;20089;-74
2021/08/26 01:29:12;;;;;;;11.65;2.67;;;15.50;99.90;;;;;;5093037;28;20754;-74
2021/08/26 01:31:39;;;;;;;8.90;2.08;;;15.50;99.90;;;;;;5092157;28;20044;-74
2021/08/26 01:34:06;;;;;;;10.80;1.95;;;15.50;99.90;;;;;;5093512;28;20455;-75
2021/08/26 01:36:34;;;;;;;11.05;1.95;;;15.60;99.90;;;;;;5092237;28;20051;-75
2021/08/26 01:39:02;;;;;;;5.57;1.63;;;15.60;99.90;;;;;;5092988;28;20066;-75
2021/08/26 01:41:54;;;;;;;5.60;1.63;;;15.50;99.90;;;;;;5092727;28;20052;-75
2021/08/26 01:44:24;;;;;;;6.20;1.70;;;15.50;99.90;;;;;;5091904;28;20036;-75
2021/08/26 01:46:52;;;;;;;8.13;1.88;;;15.40;99.90;;;;;;5093179;28;20480;-75
2021/08/26 01:49:18;;;;;;;9.75;2.03;;;15.40;99.90;;;;;;5092713;28;20032;-75
2021/08/26 01:51:44;;;;;;;11.07;1.65;;;15.40;99.90;;;;;;5093078;28;20536;-75
2021/08/26 01:54:09;;;;;;;8.27;1.73;;;15.40;99.90;;;;;;5092968;28;20044;-75
2021/08/26 01:56:36;;;;;;;10.38;2.10;;;15.40;99.90;;;;;;5091816;28;20123;-75
2021/08/26 01:59:02;;;;;;;11.05;3.45;;;15.40;99.90;;;;;;5092799;28;20075;-75
2021/08/26 02:01:27;;;;;;;6.90;1.25;;;15.30;99.90;;;;;;5092951;28;20465;-75
2021/08/26 02:03:53;;;;;;;11.38;1.90;;;15.30;99.90;;;;;;5093458;28;20113;-75
2021/08/26 02:06:19;;;;;;;9.48;1.95;;;15.30;99.90;;;;;;5093304;28;20472;-75
2021/08/26 02:08:44;;;;;;;6.93;2.10;;;15.40;99.90;;;;;;5092547;28;20040;-75
2021/08/26 02:11:13;;;;;;;7.15;2.17;;;15.30;99.90;;;;;;5092953;28;20036;-75
2021/08/26 02:13:38;;;;;;;11.00;2.60;;;15.30;99.90;;;;;;5093033;28;20089;-75
2021/08/26 02:16:06;;;;;;;8.77;2.20;;;15.30;99.90;;;;;;5096181;28;20044;-75
2021/08/26 02:18:31;;;;;;;12.93;3.13;;;15.30;99.90;;;;;;5096507;28;20427;-75
2021/08/26 02:20:57;;;;;;;11.88;2.45;;;15.40;99.90;;;;;;5095380;28;20044;-75
2021/08/26 02:23:23;;;;;;;12.75;2.70;;;15.40;99.90;;;;;;5096571;28;20036;-75
2021/08/26 02:25:48;;;;;;;17.20;3.35;;;15.30;99.90;;;;;;5095503;28;20093;-75
2021/08/26 02:28:14;;;;;;;11.98;3.22;;;15.40;99.90;;;;;;5096534;28;20396;-74
2021/08/26 02:30:39;;;;;;;15.82;3.85;;;15.40;99.90;;;;;;5096086;28;20114;-75
2021/08/26 02:33:05;;;;;;;12.57;3.15;;;15.40;99.90;;;;;;5095613;28;20055;-75
2021/08/26 02:35:31;;;;;;;13.68;3.00;;;15.40;99.90;;;;;;5096543;28;20373;-74
2021/08/26 02:37:56;;;;;;;13.80;3.63;;;15.50;99.90;;;;;;5095075;28;20051;-75
2021/08/26 02:40:22;;;;;;;13.60;2.47;;;15.50;99.90;;;;;;5096140;28;20118;-75
2021/08/26 02:42:47;;;;;;;12.55;3.28;;;15.50;99.90;;;;;;5096325;28;20043;-74
2021/08/26 02:45:13;;;;;;;10.73;2.70;;;15.50;99.90;;;;;;5096787;28;20036;-75
2021/08/26 02:47:38;;;;;;;12.05;2.58;;;15.50;99.90;;;;;;5096100;28;20492;-75
2021/08/26 02:50:04;;;;;;;8.27;2.28;;;15.50;99.90;;;;;;5094456;28;20479;-75
2021/08/26 02:52:30;;;;;;;9.73;2.60;;;15.40;99.90;;;;;;5096180;28;20046;-75
2021/08/26 02:54:56;;;;;;;9.52;2.72;;;15.50;99.90;;;;;;5096034;28;20048;-75
2021/08/26 02:57:21;;;;;;;14.30;3.20;;;15.50;99.90;;;;;;5096038;28;20036;-75
2021/08/26 02:59:47;;;;;;;13.20;3.13;;;15.50;99.90;;;;;;5095758;28;20076;-75
2021/08/26 03:02:12;;;;;;;17.15;3.70;;;15.50;99.90;;;;;;5094775;28;20050;-75
2021/08/26 03:04:38;;;;;;;13.02;2.83;;;15.50;99.90;;;;;;5096274;28;20068;-75
2021/08/26 03:07:03;;;;;;;12.07;3.75;;;15.50;99.90;;;;;;5095778;28;20044;-75
2021/08/26 03:09:29;;;;;;;12.05;3.65;;;15.50;99.90;;;;;;5095380;28;20115;-75
2021/08/26 03:11:55;;;;;;;9.77;2.70;;;15.50;99.90;;;;;;5094736;28;20036;-74
2021/08/26 03:14:20;;;;;;;12.77;3.60;;;15.50;99.90;;;;;;5095640;28;20365;-74
2021/08/26 03:16:46;;;;;;;14.00;2.97;;;15.50;99.90;;;;;;5095820;28;20434;-75
2021/08/26 03:19:11;;;;;;;14.40;3.40;;;15.50;99.90;;;;;;5095325;28;20036;-74
2021/08/26 03:21:37;;;;;;;8.85;2.58;;;15.40;99.90;;;;;;5077464;28;20392;-75
2021/08/26 03:24:04;;;;;;;16.92;3.30;;;15.40;99.90;;;;;;5095867;28;20100;-74
2021/08/26 03:26:33;;;;;;;13.43;3.00;;;15.40;99.90;;;;;;5077031;28;20048;-75
2021/08/26 03:28:59;;;;;;;10.93;2.88;;;15.30;99.90;;;;;;5095160;28;20040;-75
2021/08/26 03:31:25;;;;;;;14.80;3.20;;;15.30;99.90;;;;;;5095371;28;20043;-75
2021/08/26 03:33:50;;;;;;;18.48;3.70;;;15.30;99.90;;;;;;5094084;28;20389;-75
2021/08/26 03:36:16;;;;;;;23.13;4.22;;;15.30;99.90;;;;;;5095568;28;20403;-75
2021/08/26 03:38:42;;;;;;;14.43;3.97;;;15.30;99.90;;;;;;5094879;28;20044;-75
2021/08/26 03:41:07;;;;;;;14.75;3.20;;;15.30;99.90;;;;;;5095113;28;20040;-75
2021/08/26 03:43:33;;;;;;;15.13;3.95;;;15.30;99.90;;;;;;5095645;28;20071;-75
2021/08/26 03:45:59;;;;;;;14.10;3.30;;;15.40;99.90;;;;;;5093671;28;20044;-75
2021/08/26 03:48:24;;;;;;;12.52;3.40;;;15.30;99.90;;;;;;5095414;28;20082;-75
2021/08/26 03:50:50;;;;;;;12.20;3.63;;;15.30;99.90;;;;;;5095069;28;20040;-75
2021/08/26 03:53:16;;;;;;;21.63;4.20;;;15.30;99.90;;;;;;5095161;28;20354;-75
2021/08/26 03:55:44;;;;;;;16.65;4.93;;;15.30;99.90;;;;;;5094788;28;20452;-75
2021/08/26 03:58:09;;;;;;;15.82;4.10;;;15.40;99.90;;;;;;5094872;28;20465;-75
2021/08/26 04:00:35;;;;;;;13.30;3.85;;;15.40;99.90;;;;;;5094088;28;20047;-75
2021/08/26 04:03:00;;;;;;;21.80;5.13;;;15.40;99.90;;;;;;5094670;28;20397;-75
2021/08/26 04:05:26;;;;;;;23.15;4.25;;;15.40;99.90;;;;;;5092958;28;20210;-74
2021/08/26 04:07:52;;;;;;;18.00;3.88;;;15.40;99.90;;;;;;5093272;28;20040;-75
2021/08/26 04:10:17;;;;;;;13.38;4.38;;;15.40;99.90;;;;;;5094191;28;20074;-75
2021/08/26 04:12:43;;;;;;;14.18;3.90;;;15.40;99.90;;;;;;5094379;28;20043;-75
2021/08/26 04:15:09;;;;;;;21.00;4.88;;;15.30;99.90;;;;;;5092950;28;20040;-75
2021/08/26 04:17:34;;;;;;;16.90;4.20;;;15.30;99.90;;;;;;5094200;28;20071;-75
2021/08/26 04:20:00;;;;;;;18.13;4.57;;;15.30;99.90;;;;;;5092307;28;20055;-75
2021/08/26 04:22:25;;;;;;;13.50;4.82;;;15.20;99.90;;;;;;5093918;28;20118;-75
2021/08/26 04:24:51;;;;;;;20.92;4.93;;;15.30;99.90;;;;;;5094007;28;20047;-75
2021/08/26 04:27:16;;;;;;;22.83;5.13;;;15.20;99.90;;;;;;5093217;28;20493;-75
2021/08/26 04:29:42;;;;;;;25.50;5.30;;;15.20;99.90;;;;;;5094025;28;20122;-75
2021/08/26 04:32:08;;;;;;;30.15;5.13;;;15.10;99.90;;;;;;5092757;28;20111;-75
2021/08/26 04:34:33;;;;;;;22.05;5.07;;;15.20;99.90;;;;;;5093046;28;20043;-75
2021/08/26 04:36:59;;;;;;;20.35;4.82;;;15.10;99.90;;;;;;5093324;28;20105;-75
2021/08/26 04:39:24;;;;;;;21.58;5.53;;;15.10;99.90;;;;;;5093712;28;20036;-75
2021/08/26 04:41:50;;;;;;;24.55;4.97;;;15.10;99.90;;;;;;5093102;28;20074;-74
2021/08/26 04:44:16;;;;;;;22.63;5.20;;;15.10;99.90;;;;;;5094377;28;20089;-74
2021/08/26 04:46:41;;;;;;;25.60;5.63;;;15.10;99.90;;;;;;5094048;28;20083;-73
2021/08/26 04:49:07;;;;;;;17.33;4.30;;;15.00;99.90;;;;;;5093829;28;20472;-74
2021/08/26 04:51:35;;;;;;;20.83;5.40;;;15.00;99.90;;;;;;5093670;28;20044;-74
2021/08/26 04:54:01;;;;;;;19.15;5.25;;;15.00;99.90;;;;;;5092723;28;20051;-74
2021/08/26 04:56:26;;;;;;;22.40;4.82;;;15.00;99.90;;;;;;5093973;28;20040;-73
2021/08/26 04:58:52;;;;;;;20.30;5.93;;;15.00;99.90;;;;;;5093335;28;20507;-74
2021/08/26 05:01:18;;;;;;;20.10;5.10;;;14.90;99.90;;;;;;5092606;28;20044;-74
2021/08/26 05:03:43;;;;;;;21.85;4.40;;;15.00;99.90;;;;;;5093770;28;20487;-74
2021/08/26 05:06:09;;;;;;;18.90;4.55;;;15.00;99.90;;;;;;5092326;28;20040;-74
2021/08/26 05:08:34;;;;;;;21.02;5.75;;;14.90;99.90;;;;;;5093498;28;20039;-75
2021/08/26 05:11:00;;;;;;;19.70;4.75;;;14.90;99.90;;;;;;5093583;28;20090;-74
2021/08/26 05:13:25;;;;;;;19.88;5.18;;;15.00;99.90;;;;;;5093576;28;20085;-73
2021/08/26 05:15:51;;;;;;;20.67;5.25;;;14.90;99.90;;;;;;5093447;28;20032;-72
2021/08/26 05:18:17;;;;;;;22.63;4.72;;;15.00;99.90;;;;;;5093706;28;20040;-72
2021/08/26 05:20:42;;;;;;;18.83;5.00;;;15.00;99.90;;;;;;5091548;28;20051;-72
2021/08/26 05:23:08;;;;;;;19.65;5.15;;;15.10;99.90;;;;;;5093531;28;20036;-72
2021/08/26 05:25:37;;;;;;;19.15;4.97;;;15.10;99.90;;;;;;5092197;28;20092;-72
2021/08/26 05:28:02;;;;;;;15.88;5.10;;;15.20;99.90;;;;;;5092541;28;20048;-72
2021/08/26 05:30:28;;;;;;;21.10;5.28;;;15.30;99.90;;;;;;5093113;28;20047;-72
2021/08/26 05:32:55;;;;;;;20.88;4.75;;;15.30;99.90;;;;;;5092959;28;20036;-72
2021/08/26 05:35:20;;;;;;;24.80;4.85;;;15.40;99.90;;;;;;5092126;28;20067;-72
2021/08/26 05:37:46;;;;;;;23.85;6.07;;;15.60;99.90;;;;;;5093384;28;20465;-72
2021/08/26 05:40:12;;;;;;;14.57;4.03;;;15.60;99.90;;;;;;5093070;28;20054;-72
2021/08/26 05:42:37;;;;;;;19.80;4.70;;;15.90;99.90;;;;;;5093403;28;20400;-72
2021/08/26 05:45:03;;;;;;;23.40;4.93;;;16.10;99.90;;;;;;5091848;28;20048;-72
2021/08/26 05:47:29;;;;;;;14.95;3.92;;;16.20;99.90;;;;;;5093124;28;20047;-72
2021/08/26 05:49:55;;;;;;;19.55;5.55;;;16.30;99.90;;;;;;5096087;28;20388;-72
2021/08/26 05:52:20;;;;;;;17.98;5.10;;;16.40;99.90;;;;;;5096053;28;20491;-72
2021/08/26 05:54:47;;;;;;;18.85;4.22;;;16.60;99.90;;;;;;5097221;28;20032;-72
2021/08/26 05:57:12;;;;;;;20.30;5.43;;;16.70;99.90;;;;;;5096077;28;20051;-72
2021/08/26 05:59:38;;;;;;;30.27;7.22;;;16.90;99.90;;;;;;5096859;28;20047;-72
2021/08/26 06:02:03;;;;;;;20.33;5.30;;;17.00;99.90;;;;;;5095735;28;20068;-72
2021/08/26 06:04:29;;;;;;;23.17;5.55;;;17.20;99.90;;;;;;5095539;28;20036;-72
2021/08/26 06:06:54;;;;;;;20.65;5.00;;;17.30;99.90;;;;;;5095519;28;20059;-71
2021/08/26 06:09:20;;;;;;;20.08;5.07;;;17.40;99.90;;;;;;5096629;28;20500;-72
2021/08/26 06:11:46;;;;;;;22.83;5.05;;;17.50;99.90;;;;;;5095254;28;20044;-72
2021/08/26 06:14:11;;;;;;;15.65;5.28;;;17.70;99.90;;;;;;5096669;28;20044;-72
2021/08/26 06:16:37;;;;;;;21.50;5.10;;;17.80;99.90;;;;;;5095217;28;20045;-72
2021/08/26 06:19:03;;;;;;;22.30;5.68;;;18.00;99.90;;;;;;5094956;28;20036;-72
2021/08/26 06:21:29;;;;;;;19.40;5.97;;;18.10;99.90;;;;;;5095035;28;20048;-72
2021/08/26 06:23:54;;;;;;;22.05;6.15;;;18.30;99.90;;;;;;5095117;28;20040;-72
2021/08/26 06:26:20;;;;;;;27.15;7.10;;;18.40;99.90;;;;;;5096411;28;20127;-72
2021/08/26 06:28:46;;;;;;;19.85;5.68;;;18.40;99.90;;;;;;5094884;28;20070;-72
2021/08/26 06:31:13;;;;;;;21.52;6.45;;;18.60;99.90;;;;;;5096907;28;20078;-72
2021/08/26 06:33:39;;;;;;;30.10;6.25;;;18.80;99.90;;;;;;5096309;28;20036;-72
2021/08/26 06:36:04;;;;;;;23.17;6.40;;;18.90;99.90;;;;;;5096455;28;20109;-72
2021/08/26 06:38:30;;;;;;;17.30;5.70;;;19.00;99.90;;;;;;5095977;28;20545;-72
2021/08/26 06:40:56;;;;;;;20.95;5.68;;;19.10;99.90;;;;;;5096228;28;20044;-72
2021/08/26 06:43:21;;;;;;;18.77;5.97;;;19.30;99.90;;;;;;5095348;28;20036;-72
2021/08/26 06:45:47;;;;;;;19.98;7.22;;;19.30;99.90;;;;;;5096031;28;20047;-72
2021/08/26 06:48:12;;;;;;;26.00;5.43;;;19.30;99.90;;;;;;5094868;28;20443;-72
2021/08/26 06:50:38;;;;;;;24.60;6.63;;;19.40;99.90;;;;;;5095928;28;20115;-72
2021/08/26 06:53:04;;;;;;;26.65;6.18;;;19.40;99.90;;;;;;5078400;28;20078;-72
2021/08/26 06:55:29;;;;;;;23.70;5.75;;;19.50;99.90;;;;;;5095326;28;20464;-72
2021/08/26 06:57:55;;;;;;;23.52;5.95;;;19.70;99.90;;;;;;5094506;28;20146;-72
2021/08/26 07:00:20;;;;;;;19.77;5.13;;;19.90;99.90;;;;;;5094534;28;20036;-72
2021/08/26 07:02:46;;;;;;;27.40;6.22;;;19.90;99.90;;;;;;5095649;28;20040;-72
2021/08/26 07:05:12;;;;;;;21.35;5.97;;;19.90;99.90;;;;;;5095643;28;20075;-72
2021/08/26 07:07:38;;;;;;;20.33;5.82;;;20.00;99.90;;;;;;5095894;28;20043;-72
2021/08/26 07:10:04;;;;;;;22.00;7.10;;;19.90;99.90;;;;;;5095256;28;20407;-71
2021/08/26 07:12:33;;;;;;;20.98;5.75;;;19.80;99.90;;;;;;5095380;28;20078;-72
2021/08/26 07:14:59;;;;;;;27.75;6.60;;;20.20;99.90;;;;;;5094385;28;20038;-72
2021/08/26 07:17:25;;;;;;;27.10;6.88;;;20.40;99.90;;;;;;5095371;28;20075;-72
2021/08/26 07:19:51;;;;;;;23.13;5.97;;;20.40;99.90;;;;;;5095158;28;20514;-72
2021/08/26 07:22:17;;;;;;;25.35;6.90;;;20.10;99.90;;;;;;5094143;28;20119;-71
2021/08/26 07:24:43;;;;;;;27.45;7.38;;;20.10;99.90;;;;;;5095979;28;20036;-72
2021/08/26 07:27:10;;;;;;;24.95;5.65;;;20.20;99.90;;;;;;5096049;28;20050;-72
2021/08/26 07:29:36;;;;;;;27.88;6.35;;;20.50;99.90;;;;;;5095291;28;20047;-72
2021/08/26 07:32:02;;;;;;;20.30;5.75;;;20.20;99.90;;;;;;5095569;28;20386;-72
2021/08/26 07:34:27;;;;;;;23.63;5.07;;;20.40;99.90;;;;;;5095649;28;20044;-72
2021/08/26 07:36:53;;;;;;;24.55;5.80;;;20.60;99.90;;;;;;5094029;28;20036;-72
2021/08/26 07:39:18;;;;;;;25.65;5.93;;;20.10;99.90;;;;;;5094904;28;20435;-71
2021/08/26 07:41:44;;;;;;;18.73;5.88;;;20.10;99.90;;;;;;5095037;28;20408;-71
2021/08/26 07:44:09;;;;;;;20.08;5.70;;;20.30;99.90;;;;;;5094076;28;20055;-72
2021/08/26 07:46:35;;;;;;;24.83;6.28;;;20.50;99.90;;;;;;5095097;28;20389;-72
2021/08/26 07:49:01;;;;;;;19.30;4.72;;;20.40;99.90;;;;;;5094865;28;20071;-72
2021/08/26 07:51:26;;;;;;;17.92;6.20;;;20.20;99.90;;;;;;5094907;28;20051;-71
2021/08/26 07:53:52;;;;;;;23.92;6.30;;;20.60;99.90;;;;;;5077242;28;20040;-72
2021/08/26 07:56:18;;;;;;;22.63;5.97;;;20.80;99.90;;;;;;5094807;28;20499;-72
2021/08/26 07:58:43;;;;;;;17.35;5.22;;;20.90;99.90;;;;;;5094576;28;20119;-71
2021/08/26 08:01:09;;;;;;;22.95;5.68;;;21.00;99.90;;;;;;5094642;28;20411;-71
2021/08/26 08:03:35;;;;;;;22.30;5.50;;;20.50;99.90;;;;;;5094960;28;20044;-72
2021/08/26 08:06:01;;;;;;;23.58;7.32;;;20.50;99.90;;;;;;5094743;28;20093;-72
2021/08/26 08:08:27;;;;;;;25.02;6.38;;;20.40;99.90;;;;;;5094530;28;20126;-72
2021/08/26 08:10:52;;;;;;;19.65;5.65;;;20.50;99.90;;;;;;5093266;28;20132;-71
2021/08/26 08:13:18;;;;;;;22.50;5.43;;;20.40;99.90;;;;;;5094055;28;20040;-71
2021/08/26 08:15:44;;;;;;;22.85;5.72;;;20.60;99.90;;;;;;5076384;28;20496;-72
2021/08/26 08:18:11;;;;;;;18.65;5.70;;;20.50;99.90;;;;;;5094711;28;20036;-71
2021/08/26 08:20:37;;;;;;;24.13;6.30;;;20.60;99.90;;;;;;5094574;28;20077;-72
2021/08/26 08:23:03;;;;;;;26.88;5.40;;;20.50;99.90;;;;;;5093323;28;20069;-71
2021/08/26 08:25:29;;;;;;;25.20;5.90;;;20.20;99.90;;;;;;5076294;28;20114;-71
2021/08/26 08:27:55;;;;;;;21.63;6.15;;;20.40;99.90;;;;;;5076048;28;20040;-71
2021/08/26 08:30:26;;;;;;;22.30;6.40;;;20.10;99.90;;;;;;5094123;28;20032;-71
2021/08/26 08:32:55;;;;;;;21.75;5.68;;;19.80;99.90;;;;;;5094300;28;20043;-71
2021/08/26 08:35:24;;;;;;;20.30;4.47;;;20.00;99.90;;;;;;5093682;28;20097;-72
2021/08/26 08:37:50;;;;;;;15.93;4.85;;;20.40;99.90;;;;;;5093808;28;20039;-71
2021/08/26 08:40:16;;;;;;;22.42;5.43;;;20.30;99.90;;;;;;5093888;28;20119;-71
2021/08/26 08:42:44;;;;;;;16.75;5.15;;;20.00;99.90;;;;;;5092824;28;20468;-71
2021/08/26 08:45:10;;;;;;;17.05;4.90;;;20.10;99.90;;;;;;5094260;28;20039;-71
2021/08/26 08:47:37;;;;;;;17.95;5.43;;;20.00;99.90;;;;;;5094363;28;20036;-71
2021/08/26 08:50:04;;;;;;;16.88;4.43;;;20.00;99.90;;;;;;5091690;28;20127;-71
2021/08/26 08:52:38;;;;;;;18.08;4.55;;;20.00;99.90;;;;;;5092206;28;20454;-71
2021/08/26 08:55:11;;;;;;;22.35;5.32;;;19.90;99.90;;;;;;5092809;28;20070;-71
2021/08/26 08:57:43;;;;;;;17.77;4.85;;;19.60;99.90;;;;;;5093764;28;20051;-71
2021/08/26 09:00:11;;;;;;;21.58;4.70;;;19.60;99.90;;;;;;5093521;28;20040;-71
2021/08/26 09:02:37;;;;;;;16.70;5.00;;;19.50;99.90;;;;;;5094030;28;20425;-71
2021/08/26 09:05:05;;;;;;;25.50;5.10;;;19.80;99.90;;;;;;5092525;28;20083;-71
2021/08/26 09:07:33;;;;;;;20.45;4.88;;;19.50;99.90;;;;;;5092317;28;20602;-71
2021/08/26 09:09:59;;;;;;;13.75;4.25;;;20.10;99.90;;;;;;5093279;28;20036;-71
2021/08/26 09:12:40;;;;;;;20.20;5.32;;;20.50;99.90;;;;;;5093753;28;20483;-72
2021/08/26 09:15:14;;;;;;;19.90;4.55;;;20.60;99.90;;;;;;5093578;28;20040;-71
2021/08/26 09:17:40;;;;;;;17.52;4.68;;;20.60;99.90;;;;;;5093311;28;20472;-71
2021/08/26 09:20:09;;;;;;;17.08;4.43;;;20.40;99.90;;;;;;5093103;28;20563;-69
2021/08/26 09:22:35;;;;;;;13.32;4.53;;;19.90;99.90;;;;;;5092323;28;20050;-69
2021/08/26 09:25:02;;;;;;;17.67;4.82;;;19.90;99.90;;;;;;5092176;28;20044;-69
2021/08/26 09:27:30;;;;;;;18.10;3.90;;;19.80;99.90;;;;;;5093608;28;20048;-70
2021/08/26 09:30:17;;;;;;;14.38;4.25;;;19.70;99.90;;;;;;5091872;28;20051;-71
2021/08/26 09:32:44;;;;;;;12.60;4.28;;;19.80;99.90;;;;;;5092617;28;20044;-71
2021/08/26 09:35:19;;;;;;;15.45;4.88;;;19.70;99.90;;;;;;5091421;28;20036;-72
2021/08/26 09:37:58;;;;;;;17.50;5.43;;;19.90;99.90;;;;;;5090101;28;20052;-72
2021/08/26 09:40:26;;;;;;;13.20;5.13;;;20.40;99.90;;;;;;5090285;28;20528;-72
2021/08/26 09:43:04;;;;;;;14.80;4.47;;;20.40;99.90;;;;;;5091761;28;20189;-72
2021/08/26 09:45:32;;;;;;;11.90;4.55;;;20.50;99.90;;;;;;5091814;28;20040;-72
2021/08/26 09:48:07;;;;;;;17.30;4.40;;;20.50;99.90;;;;;;5092183;28;20077;-72
2021/08/26 09:50:37;;;;;;;17.02;4.55;;;20.40;99.90;;;;;;5093266;28;20040;-71
2021/08/26 09:53:03;;;;;;;16.58;4.85;;;20.10;99.90;;;;;;5094053;28;20101;-72
2021/08/26 09:55:51;;;;;;;16.88;5.25;;;20.20;99.90;;;;;;5091841;28;20040;-71
2021/08/26 09:58:20;;;;;;;20.80;5.05;;;19.90;99.90;;;;;;5092919;28;20480;-71
2021/08/26 10:00:46;;;;;;;18.85;5.10;;;19.60;99.90;;;;;;5091714;28;20050;-72
2021/08/26 10:03:14;;;;;;;23.75;5.35;;;19.60;99.90;;;;;;5092992;28;20396;-71
2021/08/26 10:05:45;;;;;;;18.98;6.40;;;19.80;99.90;;;;;;5091715;28;20404;-71
2021/08/26 10:08:12;;;;;;;14.70;4.28;;;20.00;99.90;;;;;;5091814;28;20052;-71
2021/08/26 10:10:40;;;;;;;21.13;5.18;;;19.90;99.90;;;;;;5092756;28;20043;-71
2021/08/26 10:13:06;;;;;;;20.35;5.90;;;19.80;99.90;;;;;;5091582;28;20089;-71
2021/08/26 10:15:32;;;;;;;21.77;5.70;;;19.60;99.90;;;;;;5093154;28;20047;-71
2021/08/26 10:17:58;;;;;;;19.13;4.70;;;19.50;99.90;;;;;;5092720;28;20055;-71
2021/08/26 10:20:24;;;;;;;18.90;5.50;;;19.40;99.90;;;;;;5091334;28;20032;-71
2021/08/26 10:22:51;;;;;;;11.25;4.65;;;19.20;99.90;;;;;;5092792;28;20086;-71
2021/08/26 10:25:16;;;;;;;14.15;4.32;;;19.20;99.90;;;;;;5092991;28;20081;-72
2021/08/26 10:27:44;;;;;;;16.13;4.07;;;19.10;99.90;;;;;;5092840;28;20130;-71
2021/08/26 10:30:27;;;;;;;18.33;4.53;;;19.10;99.90;;;;;;5091275;28;20069;-71
2021/08/26 10:33:12;;;;;;;13.70;4.80;;;19.10;99.90;;;;;;5091398;28;20052;-71
2021/08/26 10:35:49;;;;;;;17.33;4.88;;;19.30;99.90;;;;;;5093514;28;20048;-71
2021/08/26 10:38:30;;;;;;;17.50;5.18;;;19.60;99.90;;;;;;5094994;28;20135;-71
2021/08/26 10:41:16;;;;;;;17.63;4.55;;;19.90;99.90;;;;;;5096244;28;20127;-71
2021/08/26 10:43:41;;;;;;;16.83;4.57;;;20.10;99.90;;;;;;5096438;28;20034;-71
2021/08/26 10:46:09;;;;;;;13.80;3.90;;;20.00;99.90;;;;;;5095191;28;20115;-71
2021/08/26 10:48:36;;;;;;;13.23;2.95;;;20.10;99.90;;;;;;5094936;28;20104;-71
2021/08/26 10:51:18;;;;;;;18.13;3.75;;;20.10;99.90;;;;;;5096599;28;20043;-71
2021/08/26 10:53:49;;;;;;;9.38;3.15;;;20.40;99.90;;;;;;5095465;28;20492;-71
2021/08/26 10:56:34;;;;;;;7.95;2.45;;;20.70;99.90;;;;;;5096104;28;20032;-71
2021/08/26 10:59:01;;;;;;;11.25;2.85;;;20.70;99.90;;;;;;5095726;28;20032;-72
2021/08/26 11:01:27;;;;;;;15.02;3.20;;;20.60;99.90;;;;;;5096076;28;20076;-71
2021/08/26 11:03:55;;;;;;;13.65;2.05;;;20.60;99.90;;;;;;5094794;28;20380;-71
2021/08/26 11:06:24;;;;;;;9.00;2.30;;;20.00;99.90;;;;;;5095472;28;20066;-68
2021/08/26 11:08:54;;;;;;;5.25;1.40;;;20.10;99.90;;;;;;5095479;28;20039;-68
2021/08/26 11:11:32;;;;;;;5.82;1.33;;;20.50;99.90;;;;;;5095558;28;20086;-73
2021/08/26 11:14:03;;;;;;;7.18;0.80;;;20.60;99.30;;;;;;5095748;28;20526;-70
2021/08/26 11:16:29;;;;;;;4.05;1.60;;;20.50;99.40;;;;;;5095720;28;20039;-70
2021/08/26 11:18:55;;;;;;;8.75;1.23;;;20.40;99.10;;;;;;5094223;28;20100;-70
2021/08/26 11:24:12;;;;;;;5.70;0.80;;;20.30;99.40;;;;;;5094429;28;20071;-70
2021/08/26 11:26:48;;;;;;;4.47;0.70;;;20.20;99.90;;;;;;5094146;28;20544;-70
2021/08/26 11:29:19;;;;;;;6.57;0.98;;;19.90;99.80;;;;;;5095145;28;20040;-71
2021/08/26 11:32:00;;;;;;;8.02;1.45;;;20.20;99.40;;;;;;5095443;28;20472;-70
2021/08/26 11:34:31;;;;;;;5.43;0.88;;;20.00;99.10;;;;;;5095841;28;20043;-71
2021/08/26 11:37:10;;;;;;;6.13;1.40;;;20.10;97.40;;;;;;5095124;28;20040;-70
2021/08/26 11:39:39;;;;;;;4.63;0.68;;;19.60;97.80;;;;;;5095301;28;20481;-70
2021/08/26 11:42:07;;;;;;;3.25;0.95;;;19.40;98.70;;;;;;5095159;28;20032;-69
2021/08/26 11:44:33;;;;;;;4.35;0.60;;;19.60;99.50;;;;;;5095556;28;20509;-70
2021/08/26 11:46:59;;;;;;;3.78;0.70;;;19.90;98.40;;;;;;5095056;28;20472;-70
2021/08/26 11:49:36;;;;;;;5.25;0.47;;;19.90;96.40;;;;;;5093740;28;20055;-70
2021/08/26 11:52:13;;;;;;;3.45;0.57;;;20.00;97.90;;;;;;5093837;28;20047;-71
2021/08/26 11:54:45;;;;;;;2.50;0.75;;;20.10;98.50;;;;;;5093737;28;20545;-71
2021/08/26 11:57:12;;;;;;;5.53;0.90;;;19.80;98.80;;;;;;5095087;28;20472;-70
2021/08/26 11:59:40;;;;;;;3.70;1.23;;;19.50;99.50;;;;;;5093223;28;20044;-70
2021/08/26 12:02:27;;;;;;;6.50;0.90;;;19.30;99.90;;;;;;5091336;28;20024;-71
2021/08/26 12:04:58;;;;;;;5.07;1.13;;;19.30;99.90;;;;;;5074650;28;20057;-70
2021/08/26 12:07:34;;;;;;;4.60;0.70;;;19.40;99.90;;;;;;5074571;28;20496;-71
2021/08/26 12:10:19;;;;;;;6.20;0.60;;;19.60;99.80;;;;;;5073433;28;20378;-69
2021/08/26 12:12:56;;;;;;;5.18;1.17;;;19.50;99.20;;;;;;5073028;28;20049;-70
2021/08/26 12:15:36;;;;;;;10.00;1.50;;;19.60;98.60;;;;;;5074695;28;20369;-70
2021/08/26 12:18:05;;;;;;;5.47;1.52;;;19.70;96.80;;;;;;5072830;28;20083;-71
2021/08/26 12:20:34;;;;;;;9.70;1.20;;;19.80;97.20;;;;;;5072684;28;20040;-70
2021/08/26 12:23:00;;;;;;;7.25;1.00;;;19.70;97.90;;;;;;5074785;28;20495;-70
2021/08/26 12:25:29;;;;;;;5.70;1.27;;;19.80;98.50;;;;;;5072678;28;20468;-70
2021/08/26 12:28:01;;;;;;;6.90;0.95;;;19.90;97.30;;;;;;5079042;28;20111;-70
2021/08/26 12:30:27;;;;;;;6.80;0.90;;;19.80;97.40;;;;;;5082111;28;20032;-70
2021/08/26 12:33:20;;;;;;;13.35;1.63;;;19.70;95.50;;;;;;5085048;28;20039;-70
2021/08/26 12:35:55;;;;;;;4.30;1.35;;;19.70;95.80;;;;;;5093025;28;20036;-70
2021/08/26 12:38:39;;;;;;;5.13;0.85;;;19.60;95.70;;;;;;5092633;28;20036;-70
2021/08/26 12:41:18;;;;;;;5.70;0.80;;;19.60;95.50;;;;;;5094197;28;20460;-70
2021/08/26 12:43:53;;;;;;;6.97;1.20;;;19.50;94.10;;;;;;5094556;28;20039;-70
2021/08/26 12:46:24;;;;;;;8.10;1.60;;;19.40;93.90;;;;;;5094081;28;20123;-70